Nearby METAR Reports

 

KIND - Indianapolis, Indiana, USA
Distance from station: SW 6mi, 9km
Updated: Jan 26 2020 12:54am
Overcast
Overcast
 Wind from WSW
Wind: WSW 14 mph , 22 km/h
Temperature: 30°F , -1°C
Wind Chill: 19°F , -7°C
Dew Point: 30°F , -1°C
Humidity: 100%
Barometer: 29.98 inHg , 1015.2 hPa
Clouds: Overcast
Visibility: 7 miles , 11 km
Cloud details: Overcast 1100 ft
2020/01/26 05:54 KIND 260554Z 25012KT 7SM OVC011 M01/M01 A2998 RMK AO2 SNE44 SLP160 P0000 60001 I6000 T10061011 10000 21006 51003 $
KEYE - Indianapolis, Indiana, USA
Distance from station: NW 5mi, 8km
Updated: Jan 26 2020 12:53am
Overcast
Overcast
 Wind from W
Wind: W 9 mph , 15 km/h, Gust: 20 mph , 31 km/h
Temperature: 32°F , 0°C
Wind Chill: 24°F , -4°C
Dew Point: 28°F , -2°C
Humidity: 87%
Barometer: 29.97 inHg , 1014.9 hPa
Clouds: Overcast
Visibility: 8 miles , 13 km
Cloud details: Overcast 1100 ft
2020/01/26 05:53 KEYE 260553Z AUTO 26008G17KT 8SM OVC011 00/M02 A2997 RMK AO2 SLP156 60000 T00001017 10000 20000 51004
 
KTYQ - Indianapolis Exc, Indiana, USA
Distance from station: N 17mi, 28km
Updated: Jan 26 2020 1:15am
Mist, Overcast
Mist, Overcast
 Wind from WSW
Wind: WSW 14 mph , 22 km/h, Gust: 18 mph , 30 km/h
Temperature: 30°F , -1°C
Wind Chill: 19°F , -7°C
Dew Point: 30°F , -1°C
Humidity: 100%
Barometer: 29.96 inHg , 1014.6 hPa
Summary: Mist
Clouds: Overcast
Visibility: 3 miles , 5 km
Cloud details: Overcast 500 ft
2020/01/26 06:15 KTYQ 260615Z AUTO 25012G16KT 3SM BR OVC005 M01/M01 A2996 RMK AO2 T10151015
KGEZ - Shelbyville, Indiana, USA
Distance from station: ESE 27mi, 43km
Updated: Jan 26 2020 1:11am
Mist, Overcast
Mist, Overcast
 Wind from WSW
Wind: WSW 14 mph , 22 km/h, Gust: 20 mph , 31 km/h
Temperature: 34°F , 1°C
Wind Chill: 25°F , -4°C
Dew Point: 28°F , -2°C
Humidity: 81%
Barometer: 29.98 inHg , 1015.2 hPa
Summary: Mist
Clouds: Overcast
Visibility: 6 miles , 10 km
Cloud details: Mostly Cloudy 900 ft
Overcast 1200 ft
2020/01/26 06:11 KGEZ 260611Z AUTO 24012G17KT 6SM BR BKN009 OVC012 01/M02 A2998 RMK AO2 CIG 007V011 T00061017
 
KAID - Anderson Municip, Indiana, USA
Distance from station: NE 40mi, 64km
Updated: Jan 26 2020 1:35am
Mist, Overcast
Mist, Overcast
 Wind from W
Wind: W 8 mph , 13 km/h
Temperature: 32°F , 0°C
Wind Chill: 25°F , -4°C
Dew Point: 30°F , -1°C
Humidity: 93%
Barometer: 29.95 inHg , 1014.2 hPa
Summary: Mist
Clouds: Overcast
Visibility: 4 miles , 6 km
Cloud details: Overcast 500 ft
2020/01/26 06:35 KAID 260635Z AUTO 26007KT 4SM BR OVC005 00/M01 A2995 RMK AO2 T10031010
KBAK - Columbus/Balkala, Indiana, USA
Distance from station: SSE 40mi, 64km
Updated: Jan 25 2020 9:45pm
NOT Current
Overcast
Overcast
 Wind from WSW
Wind: WSW 14 mph , 22 km/h, Gust: 18 mph , 30 km/h
Temperature: 32°F , 0°C
Wind Chill: 22°F , -6°C
Dew Point: 28°F , -2°C
Humidity: 87%
Barometer: 30.01 inHg , 1016.3 hPa
Clouds: Overcast
Visibility: 7 miles , 11 km
Cloud details: Overcast 1300 ft
2020/01/26 02:45 KBAK 260245Z 24012G16KT 7SM OVC013 00/M02 A3001 RMK LAST
 
KBMG - Bloomington, Indiana, USA
Distance from station: SSW 48mi, 78km
Updated: Jan 26 2020 12:53am
Overcast
Overcast
 Wind from WSW
Wind: WSW 12 mph , 19 km/h, Gust: 20 mph , 31 km/h
Temperature: 32°F , 0°C
Wind Chill: 23°F , -5°C
Dew Point: 27°F , -3°C
Humidity: 80%
Barometer: 30.02 inHg , 1016.6 hPa
Clouds: Overcast
Visibility: 10 miles , 16 km
Cloud details: Overcast 1300 ft
2020/01/26 05:53 KBMG 260553Z AUTO 25010G17KT 10SM OVC013 00/M03 A3002 RMK AO2 SLP172 T00001028 10006 20000 51005
KOKK - Kokomo, Indiana, USA
Distance from station: N 53mi, 85km
Updated: Jan 26 2020 12:56am
Mist, Overcast
Mist, Overcast
 Wind from W
Wind: W 16 mph , 26 km/h
Temperature: 32°F , 0°C
Wind Chill: 21°F , -6°C
Dew Point: 32°F , 0°C
Humidity: 100%
Barometer: 29.94 inHg , 1013.9 hPa
Summary: Mist
Clouds: Overcast
Visibility: 3 miles , 5 km
Cloud details: Overcast 600 ft
2020/01/26 05:56 KOKK 260556Z AUTO 26014KT 3SM BR OVC006 00/00 A2994 RMK AO2 UPB33E56 SLP147 P0000 60000 T00000000 10000 21006 51005 FZRANO